Time;durP1;ratioP1;P1;durP2;ratioP2;P2;SDS_P1;SDS_P2;PMS_P1;PMS_P2;Temp;Humidity;BMP_temperature;BMP_pressure;BME280_temperature;BME280_humidity;BME280_pressure;Samples;Min_cycle;Max_cycle;Signal;HPM_P1;HPM_P2
2023/12/28 00:00:51;;;;;;;19.43;13.37;;;;;;;8.46;69.44;100606.69;5014319;28;20245;-57
2023/12/28 00:03:18;;;;;;;21.57;12.47;;;;;;;8.43;69.24;100600.88;5014498;28;20619;-57
2023/12/28 00:05:46;;;;;;;30.27;13.50;;;;;;;8.42;70.01;100609.81;5014477;28;20225;-57
2023/12/28 00:08:13;;;;;;;23.73;13.27;;;;;;;8.41;69.54;100608.16;5013770;28;20659;-58
2023/12/28 00:10:40;;;;;;;22.37;12.57;;;;;;;8.40;70.88;100612.63;5014301;28;20574;-58
2023/12/28 00:13:06;;;;;;;21.90;11.83;;;;;;;8.42;70.25;100607.19;5014499;28;20194;-57
2023/12/28 00:15:33;;;;;;;17.43;11.10;;;;;;;8.37;70.52;100622.72;5014472;28;20271;-58
2023/12/28 00:17:59;;;;;;;25.03;12.93;;;;;;;8.24;71.98;100622.25;5014354;28;20193;-58
2023/12/28 00:20:25;;;;;;;20.40;12.77;;;;;;;8.23;71.69;100628.53;5014042;28;20221;-58
2023/12/28 00:22:53;;;;;;;20.97;12.27;;;;;;;8.19;72.53;100629.78;5013957;28;20255;-58
2023/12/28 00:25:20;;;;;;;33.27;12.97;;;;;;;8.09;72.06;100634.34;5013976;28;20670;-58
2023/12/28 00:27:47;;;;;;;19.87;11.97;;;;;;;8.06;71.89;100640.78;5014192;28;20194;-58
2023/12/28 00:30:16;;;;;;;20.77;11.80;;;;;;;8.06;72.21;100642.59;5013915;28;20206;-58
2023/12/28 00:32:45;;;;;;;21.10;11.73;;;;;;;7.94;71.84;100646.44;5014418;28;20251;-59
2023/12/28 00:35:12;;;;;;;22.70;12.13;;;;;;;7.93;70.70;100655.38;5013827;28;20198;-58
2023/12/28 00:37:40;;;;;;;24.67;11.20;;;;;;;7.93;71.48;100660.66;5025755;28;20672;-58
2023/12/28 00:40:09;;;;;;;21.00;12.13;;;;;;;7.89;71.55;100668.06;5033680;28;20224;-59
2023/12/28 00:42:35;;;;;;;19.50;10.37;;;;;;;7.81;71.29;100667.16;5033322;28;20664;-58
2023/12/28 00:45:02;;;;;;;14.63;10.07;;;;;;;7.69;72.26;100669.19;5033687;28;20282;-58
2023/12/28 00:47:29;;;;;;;14.70;9.90;;;;;;;7.69;73.32;100676.28;5033289;28;20204;-58
2023/12/28 00:49:56;;;;;;;14.47;9.27;;;;;;;7.64;72.70;100676.69;5033612;28;20197;-58
2023/12/28 00:52:22;;;;;;;10.30;9.30;;;;;;;7.61;73.46;100663.81;5033408;28;20193;-58
2023/12/28 00:54:49;;;;;;;11.73;8.80;;;;;;;7.57;74.04;100677.44;5033540;28;20251;-58
2023/12/28 00:57:17;;;;;;;9.17;8.20;;;;;;;7.58;73.53;100681.75;5033043;28;20679;-58
2023/12/28 00:59:44;;;;;;;10.47;8.13;;;;;;;7.56;72.79;100687.19;5033053;28;20232;-59
2023/12/28 01:02:11;;;;;;;9.07;8.17;;;;;;;7.55;74.07;100684.72;5033331;28;20542;-59
2023/12/28 01:04:37;;;;;;;12.27;8.20;;;;;;;7.51;73.58;100680.69;5032982;28;20215;-58
2023/12/28 01:07:05;;;;;;;15.97;8.10;;;;;;;7.48;74.30;100678.34;5033183;28;20212;-59
2023/12/28 01:09:33;;;;;;;13.47;7.80;;;;;;;7.52;74.63;100690.28;5033220;28;20197;-58
2023/12/28 01:11:59;;;;;;;11.17;7.53;;;;;;;7.46;74.15;100688.22;5032862;28;20258;-58
2023/12/28 01:14:28;;;;;;;15.07;10.00;;;;;;;7.45;74.77;100691.84;5033185;28;20549;-58
2023/12/28 01:16:54;;;;;;;15.87;10.53;;;;;;;7.42;74.15;100686.84;5032978;28;20201;-57
2023/12/28 01:19:21;;;;;;;13.13;8.90;;;;;;;7.38;75.80;100681.03;5032301;28;20220;-57
2023/12/28 01:21:48;;;;;;;15.60;10.83;;;;;;;7.40;74.85;100678.25;5032385;28;20193;-58
2023/12/28 01:24:14;;;;;;;16.07;11.13;;;;;;;7.36;75.13;100671.59;5032980;28;20262;-58
2023/12/28 01:26:41;;;;;;;16.80;10.27;;;;;;;7.40;75.50;100679.09;5032976;28;20247;-58
2023/12/28 01:29:08;;;;;;;19.40;9.17;;;;;;;7.40;74.88;100672.97;5032883;28;20229;-58
2023/12/28 01:31:38;;;;;;;10.60;8.37;;;;;;;7.39;75.10;100679.22;5032883;28;20204;-58
2023/12/28 01:34:05;;;;;;;13.97;8.90;;;;;;;7.35;75.69;100676.03;5032482;28;20185;-58
2023/12/28 01:36:32;;;;;;;12.83;9.00;;;;;;;7.32;75.22;100676.34;5026460;28;20254;-58
2023/12/28 01:38:58;;;;;;;14.80;8.80;;;;;;;7.26;75.54;100676.91;5032663;28;20251;-58
2023/12/28 01:41:25;;;;;;;13.13;8.50;;;;;;;7.28;75.66;100676.78;5032184;28;20730;-58
2023/12/28 01:43:52;;;;;;;11.77;8.17;;;;;;;7.25;75.40;100669.13;5032555;28;20258;-58
2023/12/28 01:46:20;;;;;;;13.23;8.80;;;;;;;7.22;75.18;100674.72;5032576;28;20197;-58
2023/12/28 01:48:51;;;;;;;15.30;8.83;;;;;;;7.22;75.69;100680.00;5032417;28;20197;-58
2023/12/28 01:51:18;;;;;;;12.30;9.47;;;;;;;7.20;75.22;100681.94;5032617;28;20193;-58
2023/12/28 01:53:46;;;;;;;11.77;7.43;;;;;;;7.19;76.33;100690.88;5032380;28;20201;-58
2023/12/28 01:56:13;;;;;;;10.40;8.63;;;;;;;7.08;76.81;100688.41;5032341;28;20198;-58
2023/12/28 01:58:42;;;;;;;11.47;9.00;;;;;;;7.05;77.13;100689.53;5031974;28;20215;-58
2023/12/28 02:01:09;;;;;;;9.63;8.27;;;;;;;7.08;77.37;100688.41;5032514;28;20232;-58
2023/12/28 02:03:35;;;;;;;9.67;8.33;;;;;;;7.07;77.07;100689.38;5031917;28;20737;-58
2023/12/28 02:06:05;;;;;;;10.90;8.23;;;;;;;7.05;76.54;100688.66;5032010;28;20284;-57
2023/12/28 02:08:32;;;;;;;12.13;8.57;;;;;;;6.99;76.76;100695.41;5032063;28;20197;-58
2023/12/28 02:10:59;;;;;;;9.70;8.80;;;;;;;6.97;76.72;100685.91;5031933;28;20292;-58
2023/12/28 02:13:26;;;;;;;10.00;9.00;;;;;;;6.96;77.50;100689.53;5032083;28;20193;-58
2023/12/28 02:15:59;;;;;;;10.57;8.00;;;;;;;6.91;77.24;100682.06;5031828;28;20196;-58
2023/12/28 02:18:34;;;;;;;10.80;8.80;;;;;;;6.95;77.13;100698.44;5031641;28;20189;-57
2023/12/28 02:21:05;;;;;;;13.67;8.57;;;;;;;6.92;77.10;100702.22;5032133;28;20213;-58
2023/12/28 02:23:33;;;;;;;8.63;8.00;;;;;;;6.85;77.43;100693.19;5031717;28;20727;-58
2023/12/28 02:26:01;;;;;;;11.03;8.77;;;;;;;6.74;77.86;100693.34;5031728;28;20684;-57
2023/12/28 02:28:28;;;;;;;11.00;8.73;;;;;;;6.56;79.15;100702.13;5031518;28;20228;-57
2023/12/28 02:30:54;;;;;;;9.07;8.17;;;;;;;6.44;79.69;100688.25;5031488;28;20197;-57
2023/12/28 02:33:28;;;;;;;11.50;8.33;;;;;;;6.45;79.68;100691.75;5031477;28;20193;-58
2023/12/28 02:35:59;;;;;;;12.93;8.87;;;;;;;6.49;80.14;100690.50;5031620;28;20247;-58
2023/12/28 02:38:29;;;;;;;10.67;9.67;;;;;;;6.50;80.35;100698.28;5031725;28;20185;-57
2023/12/28 02:40:56;;;;;;;13.17;8.90;;;;;;;6.50;79.35;100703.56;5031819;28;20281;-57
2023/12/28 02:43:25;;;;;;;9.90;8.90;;;;;;;6.52;79.57;100711.31;5031418;28;20197;-58
2023/12/28 02:45:52;;;;;;;9.83;8.07;;;;;;;6.45;79.01;100715.50;5031724;28;20242;-58
2023/12/28 02:48:19;;;;;;;9.53;8.73;;;;;;;6.40;79.28;100712.47;5031476;28;20280;-58
2023/12/28 02:50:46;;;;;;;9.77;8.73;;;;;;;6.44;79.98;100716.44;5031399;28;20266;-58
2023/12/28 02:53:13;;;;;;;11.90;9.07;;;;;;;6.44;78.89;100721.72;5031337;28;20203;-58
2023/12/28 02:55:40;;;;;;;12.07;9.17;;;;;;;6.41;78.37;100711.47;5031787;28;20257;-58
2023/12/28 02:58:06;;;;;;;13.10;9.30;;;;;;;6.41;79.38;100711.47;5031235;28;20618;-58
2023/12/28 03:00:34;;;;;;;15.23;11.33;;;;;;;6.43;78.88;100718.28;5031566;28;20220;-58
2023/12/28 03:03:01;;;;;;;17.90;11.50;;;;;;;6.43;79.55;100714.78;5031212;28;20619;-58
2023/12/28 03:05:28;;;;;;;17.17;11.17;;;;;;;6.45;79.30;100710.22;5031641;28;20258;-58
2023/12/28 03:07:55;;;;;;;18.60;10.57;;;;;;;6.42;78.76;100713.13;5031254;28;20498;-59
2023/12/28 03:10:22;;;;;;;12.70;10.47;;;;;;;6.37;79.32;100718.00;5031290;28;20289;-58
2023/12/28 03:12:48;;;;;;;20.77;10.10;;;;;;;6.39;79.20;100716.03;5031644;28;20251;-57
2023/12/28 03:15:16;;;;;;;11.90;10.60;;;;;;;6.25;78.85;100708.56;5031410;28;20209;-58
2023/12/28 03:17:44;;;;;;;15.90;11.63;;;;;;;6.31;79.77;100716.75;5031222;28;20656;-58
2023/12/28 03:20:11;;;;;;;12.40;10.30;;;;;;;6.30;78.91;100708.97;5031336;28;20231;-58
2023/12/28 03:22:38;;;;;;;12.90;10.10;;;;;;;6.32;79.03;100704.41;5031527;28;20204;-58
2023/12/28 03:25:06;;;;;;;11.73;10.50;;;;;;;6.34;79.43;100705.09;5031081;28;20193;-58
2023/12/28 03:27:32;;;;;;;17.00;10.17;;;;;;;6.33;79.57;100711.34;5031405;28;20199;-58
2023/12/28 03:29:59;;;;;;;17.63;10.00;;;;;;;6.31;78.87;100700.06;5031482;28;20233;-58
2023/12/28 03:32:26;;;;;;;11.77;9.17;;;;;;;6.26;79.38;100689.13;5031128;28;20656;-58
2023/12/28 03:34:54;;;;;;;11.70;9.73;;;;;;;6.26;80.02;100694.38;5031240;28;20250;-59
2023/12/28 03:37:21;;;;;;;11.63;10.00;;;;;;;6.26;79.48;100683.84;5021455;28;20256;-59
2023/12/28 03:39:47;;;;;;;13.27;9.50;;;;;;;6.26;79.53;100683.84;5011426;28;20268;-58
2023/12/28 03:42:14;;;;;;;11.20;9.47;;;;;;;6.17;80.50;100680.25;5011612;28;20201;-58
2023/12/28 03:44:41;;;;;;;12.63;9.47;;;;;;;6.19;80.39;100688.00;5014681;28;20226;-59
2023/12/28 03:47:08;;;;;;;10.97;9.73;;;;;;;6.14;79.81;100692.84;5014755;28;20198;-58
2023/12/28 03:49:35;;;;;;;11.87;9.50;;;;;;;6.04;80.50;100699.94;5014940;28;20200;-58
2023/12/28 03:52:03;;;;;;;16.07;10.70;;;;;;;6.04;81.27;100697.31;5014698;28;20623;-58
2023/12/28 03:54:30;;;;;;;15.67;10.57;;;;;;;6.06;80.14;100704.09;5014596;28;20610;-58
2023/12/28 03:56:57;;;;;;;20.70;11.07;;;;;;;6.04;80.49;100713.13;5014858;28;20204;-58
2023/12/28 03:59:24;;;;;;;19.20;11.13;;;;;;;6.07;79.94;100715.47;5014504;28;20233;-58
2023/12/28 04:01:50;;;;;;;14.27;10.87;;;;;;;6.07;80.29;100715.47;5014424;28;20228;-58
2023/12/28 04:04:17;;;;;;;15.27;9.97;;;;;;;6.08;79.82;100711.88;5014318;28;20659;-59
2023/12/28 04:06:44;;;;;;;16.53;10.90;;;;;;;6.05;79.94;100702.44;5014725;28;20651;-58
2023/12/28 04:09:14;;;;;;;19.13;10.10;;;;;;;6.05;79.27;100698.97;5014570;28;20240;-58
2023/12/28 04:11:40;;;;;;;16.00;8.97;;;;;;;6.03;80.14;100703.53;5014277;28;20199;-58
2023/12/28 04:14:07;;;;;;;13.67;9.37;;;;;;;5.97;79.91;100706.72;5014473;28;20198;-57
2023/12/28 04:16:34;;;;;;;15.50;10.10;;;;;;;5.77;80.54;100709.28;5014572;28;20639;-58
2023/12/28 04:19:00;;;;;;;10.83;9.53;;;;;;;5.75;81.46;100716.53;5014173;28;20204;-58
2023/12/28 04:21:27;;;;;;;15.13;10.30;;;;;;;5.71;81.67;100714.28;5013998;28;20221;-58
2023/12/28 04:23:54;;;;;;;21.00;10.97;;;;;;;5.70;80.72;100713.47;5014016;28;20663;-59
2023/12/28 04:26:22;;;;;;;22.90;14.07;;;;;;;5.65;80.58;100717.47;5014404;28;20279;-59
2023/12/28 04:28:48;;;;;;;26.63;13.97;;;;;;;5.66;80.81;100721.75;5014038;28;20617;-60
2023/12/28 04:31:16;;;;;;;24.50;12.27;;;;;;;5.67;81.11;100729.53;5014257;28;20207;-57
2023/12/28 04:33:43;;;;;;;24.30;11.53;;;;;;;5.60;81.05;100723.13;5013881;28;20191;-59
2023/12/28 04:36:10;;;;;;;18.80;11.47;;;;;;;5.43;81.46;100731.69;5013771;28;20631;-57
2023/12/28 04:38:38;;;;;;;17.67;11.27;;;;;;;5.32;81.84;100744.94;5014009;28;20260;-58
2023/12/28 04:41:05;;;;;;;21.67;11.23;;;;;;;5.30;82.26;100741.63;5013642;28;20657;-58
2023/12/28 04:43:33;;;;;;;27.13;9.80;;;;;;;5.38;82.14;100739.16;5013987;28;20249;-58
2023/12/28 04:46:03;;;;;;;24.53;10.50;;;;;;;5.36;81.02;100745.53;5013809;28;20209;-58
2023/12/28 04:48:30;;;;;;;17.43;11.23;;;;;;;5.34;80.74;100737.75;5013961;28;20238;-58
2023/12/28 04:50:57;;;;;;;20.97;11.17;;;;;;;5.35;81.48;100734.16;5013448;28;20265;-58
2023/12/28 04:53:24;;;;;;;16.47;9.77;;;;;;;5.32;81.93;100737.03;5013489;28;20198;-58
2023/12/28 04:55:50;;;;;;;13.57;10.57;;;;;;;5.34;81.25;100743.03;5013428;28;20200;-59
2023/12/28 04:58:17;;;;;;;14.67;9.97;;;;;;;5.33;81.07;100736.09;5013734;28;20629;-59
2023/12/28 05:00:45;;;;;;;14.37;10.33;;;;;;;5.21;80.78;100731.88;5013565;28;20288;-59
2023/12/28 05:03:12;;;;;;;15.57;10.50;;;;;;;5.18;81.60;100737.41;5013168;28;20274;-58
2023/12/28 05:05:38;;;;;;;14.53;10.50;;;;;;;5.11;81.67;100736.25;5013562;28;20203;-59
2023/12/28 05:08:06;;;;;;;16.43;11.53;;;;;;;5.07;82.34;100737.47;5013281;28;20209;-59
2023/12/28 05:10:32;;;;;;;16.80;10.83;;;;;;;5.05;82.04;100728.88;5013557;28;20643;-59
2023/12/28 05:12:59;;;;;;;14.47;11.17;;;;;;;4.95;82.27;100727.97;5013227;28;20206;-59
2023/12/28 05:15:26;;;;;;;17.40;10.87;;;;;;;4.83;82.21;100725.56;5013414;28;20254;-59
2023/12/28 05:17:54;;;;;;;13.97;10.80;;;;;;;4.77;83.22;100726.06;5013401;28;20195;-59
2023/12/28 05:20:20;;;;;;;14.47;10.70;;;;;;;4.83;84.14;100721.13;5012901;28;20618;-59
2023/12/28 05:22:48;;;;;;;14.27;11.83;;;;;;;4.79;83.21;100724.97;5013379;28;20194;-58
2023/12/28 05:25:15;;;;;;;21.40;12.90;;;;;;;4.82;82.96;100726.53;5013326;28;20551;-58
2023/12/28 05:27:42;;;;;;;17.37;12.20;;;;;;;4.78;83.30;100728.56;5013326;28;20275;-59
2023/12/28 05:30:10;;;;;;;19.83;12.97;;;;;;;4.80;83.12;100721.41;5013344;28;20230;-59
2023/12/28 05:32:37;;;;;;;17.40;12.10;;;;;;;4.82;83.46;100711.56;5013281;28;20194;-58
2023/12/28 05:35:06;;;;;;;13.93;10.70;;;;;;;4.93;83.12;100722.03;5012688;28;20202;-58
2023/12/28 05:37:33;;;;;;;18.50;11.00;;;;;;;5.00;82.90;100723.19;5024095;28;20198;-58
2023/12/28 05:39:59;;;;;;;15.93;10.77;;;;;;;5.07;82.80;100718.22;5032676;28;20255;-58
2023/12/28 05:42:26;;;;;;;26.53;15.27;;;;;;;5.13;82.69;100726.44;5032217;28;20260;-58
2023/12/28 05:44:53;;;;;;;45.20;21.13;;;;;;;5.15;81.22;100724.47;5032584;28;20193;-58
2023/12/28 05:47:19;;;;;;;32.90;17.80;;;;;;;5.10;81.69;100724.06;5032601;28;20199;-58
2023/12/28 05:49:46;;;;;;;25.83;13.33;;;;;;;5.11;82.46;100730.16;5031899;28;20232;-58
2023/12/28 05:52:16;;;;;;;18.73;12.30;;;;;;;5.17;82.33;100737.53;5032560;28;20202;-58
2023/12/28 05:54:43;;;;;;;22.33;12.93;;;;;;;5.20;81.88;100727.56;5032520;28;20197;-59
2023/12/28 05:57:10;;;;;;;23.67;13.37;;;;;;;5.26;82.17;100732.31;5032099;28;20573;-58
2023/12/28 05:59:39;;;;;;;17.80;11.93;;;;;;;5.29;81.40;100739.97;5032294;28;20197;-58
2023/12/28 06:02:05;;;;;;;17.30;11.63;;;;;;;5.32;81.42;100739.66;5031855;28;20314;-58
2023/12/28 06:04:33;;;;;;;12.50;10.27;;;;;;;5.34;81.43;100743.03;5029772;28;20189;-61
2023/12/28 06:06:59;;;;;;;17.00;10.13;;;;;;;5.40;81.37;100745.09;5022021;28;20754;-61
2023/12/28 06:09:28;;;;;;;13.70;9.80;;;;;;;5.44;81.41;100749.16;5022444;28;20203;-60
2023/12/28 06:11:55;;;;;;;15.03;9.27;;;;;;;5.49;81.09;100749.59;5022002;28;20200;-60
2023/12/28 06:14:22;;;;;;;12.90;9.13;;;;;;;5.51;80.62;100752.94;5020345;28;20658;-59
2023/12/28 06:16:48;;;;;;;11.93;9.40;;;;;;;5.56;80.73;100745.44;5021853;28;20189;-59
2023/12/28 06:19:15;;;;;;;15.87;9.73;;;;;;;5.49;81.37;100746.97;5019612;28;20742;-60
2023/12/28 06:21:42;;;;;;;10.67;9.57;;;;;;;5.47;81.86;100743.63;5021776;28;20211;-60
2023/12/28 06:24:09;;;;;;;18.23;11.10;;;;;;;5.55;82.07;100742.94;5020610;28;20236;-62
2023/12/28 06:26:41;;;;;;;17.03;12.50;;;;;;;5.66;82.17;100748.97;5023255;28;20261;-61
2023/12/28 06:29:08;;;;;;;14.30;11.70;;;;;;;5.78;82.46;100755.81;5021038;28;20648;-62
2023/12/28 06:31:36;;;;;;;18.70;11.40;;;;;;;5.88;81.36;100768.19;5020946;28;20193;-61
2023/12/28 06:34:03;;;;;;;25.70;16.13;;;;;;;6.11;82.14;100759.06;5017882;28;20191;-61
2023/12/28 06:36:29;;;;;;;36.30;22.87;;;;;;;6.42;82.05;100766.75;5020203;28;20195;-61
2023/12/28 06:38:56;;;;;;;30.40;22.10;;;;;;;6.73;79.44;100764.81;5022176;28;20189;-60
2023/12/28 06:41:23;;;;;;;30.70;16.87;;;;;;;7.01;78.86;100772.66;5020645;28;20270;-60
2023/12/28 06:43:51;;;;;;;46.47;17.10;;;;;;;7.33;77.50;100777.59;5019619;28;20232;-65
2023/12/28 06:46:18;;;;;;;16.97;11.83;;;;;;;7.91;79.77;100779.00;5021980;28;20247;-67
2023/12/28 06:48:44;;;;;;;18.60;13.77;;;;;;;8.18;72.76;100792.22;5021934;28;20197;-71
2023/12/28 06:51:17;;;;;;;19.33;13.10;;;;;;;8.47;73.27;100783.13;5018695;28;20852;-65
2023/12/28 06:53:44;;;;;;;17.10;12.53;;;;;;;8.77;70.15;100797.78;5017387;28;20829;-67
2023/12/28 06:56:11;;;;;;;19.67;12.97;;;;;;;9.08;69.97;100793.75;5014867;28;20190;-67
2023/12/28 06:58:38;;;;;;;13.30;11.43;;;;;;;9.43;68.12;100799.78;5010580;28;20194;-72
2023/12/28 07:01:06;;;;;;;13.20;11.57;;;;;;;9.58;67.35;100811.47;5014359;28;20206;-67
2023/12/28 07:03:33;;;;;;;14.07;11.63;;;;;;;9.78;65.66;100810.25;5014135;28;20248;-68
2023/12/28 07:06:00;;;;;;;19.23;11.83;;;;;;;9.93;65.77;100815.78;5016686;28;20185;-67
2023/12/28 07:08:26;;;;;;;22.43;12.07;;;;;;;9.92;64.71;100814.09;5016032;28;20260;-72
2023/12/28 07:10:53;;;;;;;13.30;11.37;;;;;;;9.94;67.26;100801.53;5014620;28;20200;-67
2023/12/28 07:13:20;;;;;;;13.83;10.10;;;;;;;9.98;64.73;100805.53;5016919;28;20186;-70
2023/12/28 07:15:47;;;;;;;14.57;11.33;;;;;;;9.83;65.12;100801.78;5014710;28;20192;-68
2023/12/28 07:18:15;;;;;;;16.60;10.97;;;;;;;9.67;65.76;100801.72;5015644;28;20197;-75
2023/12/28 07:20:42;;;;;;;15.17;10.67;;;;;;;9.43;65.69;100798.94;5023789;28;20185;-68
2023/12/28 07:23:08;;;;;;;18.23;11.20;;;;;;;9.31;66.03;100805.50;5025346;28;20247;-65
2023/12/28 07:25:35;;;;;;;41.53;11.80;;;;;;;9.19;69.23;100785.53;5024378;28;20198;-64
2023/12/28 07:28:02;;;;;;;15.67;12.17;;;;;;;9.23;67.37;100802.81;5024012;28;20198;-65
2023/12/28 07:30:29;;;;;;;21.77;16.70;;;;;;;9.35;67.22;100806.88;5025685;28;20182;-65
2023/12/28 07:32:56;;;;;;;23.37;14.73;;;;;;;9.71;72.31;100787.16;5023897;28;20583;-66
2023/12/28 07:35:24;;;;;;;32.13;12.67;;;;;;;10.15;70.74;100784.22;5023604;28;20727;-65
2023/12/28 07:37:51;;;;;;;18.47;13.07;;;;;;;10.40;63.93;100806.34;5024857;28;20195;-63
2023/12/28 07:40:18;;;;;;;17.80;12.97;;;;;;;10.35;63.33;100819.28;5021931;28;20193;-64
2023/12/28 07:42:44;;;;;;;25.67;14.40;;;;;;;10.49;64.35;100810.66;5026137;28;20221;-63
2023/12/28 07:45:11;;;;;;;27.23;15.10;;;;;;;10.56;62.70;100817.00;5013584;28;20226;-67
2023/12/28 07:47:38;;;;;;;23.00;13.47;;;;;;;10.57;62.14;100818.66;5011511;28;20204;-67
2023/12/28 07:50:06;;;;;;;17.30;12.93;;;;;;;10.57;62.74;100823.97;5012517;28;20200;-68
2023/12/28 07:52:34;;;;;;;16.60;13.30;;;;;;;10.55;62.49;100823.31;5013409;28;20207;-67
2023/12/28 07:55:00;;;;;;;15.13;11.87;;;;;;;10.72;64.28;100811.72;5014822;28;20265;-70
2023/12/28 07:57:27;;;;;;;20.23;11.87;;;;;;;10.95;65.73;100812.72;5033329;28;20199;-69
2023/12/28 07:59:54;;;;;;;17.23;11.80;;;;;;;11.35;61.15;100828.63;5032962;28;20254;-69
2023/12/28 08:02:20;;;;;;;18.80;11.57;;;;;;;11.39;60.22;100827.28;5029831;28;20280;-69
2023/12/28 08:04:47;;;;;;;14.17;10.63;;;;;;;11.43;60.71;100822.50;5022908;28;20191;-69
2023/12/28 08:07:15;;;;;;;15.13;10.43;;;;;;;11.41;59.53;100825.31;5024494;28;20195;-69
2023/12/28 08:09:43;;;;;;;13.23;10.00;;;;;;;10.98;60.46;100815.03;5023562;28;20191;-69
2023/12/28 08:12:09;;;;;;;12.33;9.23;;;;;;;11.22;60.34;100820.34;5022320;28;20652;-69
2023/12/28 08:14:36;;;;;;;14.00;9.17;;;;;;;11.51;59.39;100825.13;5014289;28;20204;-71
2023/12/28 08:17:03;;;;;;;11.53;8.87;;;;;;;11.98;58.46;100829.53;5016656;28;20192;-71
2023/12/28 08:19:30;;;;;;;10.67;9.57;;;;;;;12.29;56.99;100834.88;5024493;28;20610;-71
2023/12/28 08:21:56;;;;;;;23.93;10.57;;;;;;;12.42;56.14;100832.47;5016494;28;20270;-67
2023/12/28 08:24:23;;;;;;;11.00;9.43;;;;;;;12.91;54.80;100834.63;5014683;28;20283;-70
2023/12/28 08:26:52;;;;;;;10.03;8.23;;;;;;;13.31;52.97;100826.31;5014303;28;20209;-68
2023/12/28 08:29:19;;;;;;;12.77;9.03;;;;;;;13.40;51.42;100827.06;5015412;28;20288;-67
2023/12/28 08:31:47;;;;;;;18.27;10.07;;;;;;;13.31;55.95;100812.97;5020185;28;20661;-67
2023/12/28 08:34:13;;;;;;;9.67;8.80;;;;;;;13.21;54.08;100819.56;5012609;28;20197;-68
2023/12/28 08:36:40;;;;;;;21.43;9.60;;;;;;;13.29;56.17;100812.34;5024015;28;20189;-69
2023/12/28 08:39:08;;;;;;;28.33;10.63;;;;;;;13.58;51.97;100823.06;5031885;28;20197;-69
2023/12/28 08:41:34;;;;;;;15.07;9.33;;;;;;;13.57;51.40;100823.22;5032445;28;20221;-70
2023/12/28 08:44:03;;;;;;;13.83;10.07;;;;;;;13.83;51.94;100816.44;5011378;28;20202;-67
2023/12/28 08:46:29;;;;;;;15.57;9.30;;;;;;;14.18;50.21;100814.84;5011594;28;20256;-68
2023/12/28 08:48:56;;;;;;;17.10;10.33;;;;;;;14.49;49.42;100818.09;5011929;28;20190;-68
2023/12/28 08:51:23;;;;;;;14.13;9.93;;;;;;;14.74;46.86;100817.56;5011680;28;20198;-69
2023/12/28 08:53:50;;;;;;;11.60;8.70;;;;;;;15.05;47.02;100810.03;5011686;28;20264;-68
2023/12/28 08:56:21;;;;;;;15.40;9.27;;;;;;;15.37;45.98;100806.84;5011587;28;20204;-67
2023/12/28 08:58:49;;;;;;;16.73;9.23;;;;;;;15.46;45.35;100805.66;5011805;28;20276;-66
2023/12/28 09:01:18;;;;;;;12.73;10.30;;;;;;;15.35;45.53;100789.28;5011079;28;20190;-66
2023/12/28 09:03:46;;;;;;;18.60;9.53;;;;;;;14.94;46.31;100773.09;5030662;28;20282;-64
2023/12/28 09:06:12;;;;;;;13.67;8.80;;;;;;;14.76;51.63;100764.72;5031504;28;20194;-64
2023/12/28 09:08:42;;;;;;;12.80;8.60;;;;;;;14.70;50.13;100768.13;5030963;28;20680;-64
2023/12/28 09:11:10;;;;;;;10.03;8.17;;;;;;;14.63;50.59;100767.22;5031536;28;20201;-60
2023/12/28 09:13:37;;;;;;;13.03;7.17;;;;;;;15.17;69.04;100741.59;5031276;28;20205;-60
2023/12/28 09:16:04;;;;;;;12.82;9.90;;;;;;;15.76;49.18;100749.97;5030292;28;21171;-64
2023/12/28 09:18:32;;;;;;;20.60;9.17;;;;;;;15.98;45.50;100749.66;5031375;28;20197;-67
2023/12/28 09:20:59;;;;;;;24.87;9.77;;;;;;;16.19;44.59;100750.56;5030203;28;20262;-67
2023/12/28 09:23:26;;;;;;;32.17;10.13;;;;;;;16.15;45.25;100749.31;5022507;28;20225;-66
2023/12/28 09:25:52;;;;;;;36.13;9.83;;;;;;;15.89;43.80;100737.47;5024290;28;20267;-67
2023/12/28 09:28:19;;;;;;;15.43;9.50;;;;;;;15.64;44.36;100719.41;5025092;28;20229;-66
2023/12/28 09:30:46;;;;;;;18.87;8.40;;;;;;;15.53;46.74;100715.44;5022134;28;20257;-69
2023/12/28 09:33:12;;;;;;;14.13;8.87;;;;;;;15.70;47.13;100713.28;5029392;28;20213;-67
2023/12/28 09:35:41;;;;;;;15.67;8.63;;;;;;;15.78;46.54;100715.78;5024476;28;20669;-68
2023/12/28 09:38:08;;;;;;;13.10;9.80;;;;;;;15.84;45.76;100696.22;5008126;28;20205;-67
2023/12/28 09:40:37;;;;;;;10.97;9.03;;;;;;;15.88;44.09;100684.06;5026838;28;20197;-66
2023/12/28 09:43:13;;;;;;;15.33;8.53;;;;;;;15.96;46.00;100670.50;5022575;28;20321;-65
2023/12/28 09:45:40;;;;;;;26.70;8.20;;;;;;;16.20;45.74;100672.63;5030693;28;20242;-65
2023/12/28 09:48:07;;;;;;;29.17;10.00;;;;;;;16.28;43.26;100663.53;5030471;28;20193;-66
2023/12/28 09:50:34;;;;;;;17.07;9.20;;;;;;;16.23;43.47;100658.81;5030346;28;20197;-65
2023/12/28 09:53:03;;;;;;;22.27;10.57;;;;;;;16.30;44.71;100653.47;5016628;28;20292;-66
2023/12/28 09:55:30;;;;;;;16.40;12.50;;;;;;;16.37;44.13;100647.06;5011987;28;20205;-67
2023/12/28 09:57:58;;;;;;;15.63;11.37;;;;;;;16.39;43.62;100649.53;5030641;28;20229;-65
2023/12/28 10:00:25;;;;;;;12.77;9.70;;;;;;;16.33;43.55;100655.75;5031036;28;20544;-66
2023/12/28 10:02:53;;;;;;;9.03;6.73;;;;;;;16.75;66.99;100633.91;5014742;28;20286;-69
2023/12/28 10:05:19;;;;;;;13.63;8.60;;;;;;;17.26;45.47;100643.69;5029469;28;20201;-69
2023/12/28 10:07:48;;;;;;;9.73;8.37;;;;;;;17.11;42.47;100645.00;5028894;28;20197;-72
2023/12/28 10:10:16;;;;;;;10.37;8.90;;;;;;;16.79;42.57;100629.75;5019208;28;20760;-69
2023/12/28 10:12:43;;;;;;;10.07;8.43;;;;;;;16.68;43.32;100627.69;5024982;28;20596;-69
2023/12/28 10:15:10;;;;;;;13.50;8.00;;;;;;;16.81;43.26;100617.78;5030800;28;20243;-65
2023/12/28 10:17:37;;;;;;;12.30;8.33;;;;;;;16.87;43.79;100605.38;5030684;28;20561;-63
2023/12/28 10:20:07;;;;;;;17.50;9.53;;;;;;;16.99;44.37;100598.34;5030833;28;20203;-64
2023/12/28 10:22:34;;;;;;;22.10;10.20;;;;;;;17.08;42.12;100599.75;5030555;28;20224;-65
2023/12/28 10:25:03;;;;;;;9.50;8.13;;;;;;;17.11;41.10;100583.25;5031011;28;20203;-64
2023/12/28 10:27:31;;;;;;;8.47;7.63;;;;;;;17.23;41.09;100600.34;5030555;28;20676;-65
2023/12/28 10:29:58;;;;;;;10.53;7.70;;;;;;;16.95;41.22;100591.75;5030830;28;20228;-65
2023/12/28 10:32:25;;;;;;;11.23;8.63;;;;;;;16.92;42.42;100584.09;5030344;28;20329;-65
2023/12/28 10:34:53;;;;;;;17.43;7.97;;;;;;;17.04;42.21;100593.16;5030540;28;20204;-63
2023/12/28 10:37:21;;;;;;;13.07;7.73;;;;;;;17.04;44.01;100582.44;5022189;28;20284;-62
2023/12/28 10:39:50;;;;;;;16.13;9.07;;;;;;;17.17;41.50;100585.06;5010725;28;20204;-63
2023/12/28 10:42:28;;;;;;;25.23;8.53;;;;;;;17.19;41.32;100580.31;5004433;28;20312;-62
2023/12/28 10:45:04;;;;;;;13.63;7.80;;;;;;;17.02;40.94;100571.09;5010557;28;20197;-63
2023/12/28 10:47:33;;;;;;;9.40;7.33;;;;;;;17.05;42.39;100570.63;5010330;28;20186;-65
2023/12/28 10:50:05;;;;;;;13.43;7.90;;;;;;;17.20;39.82;100576.59;5009233;28;20655;-66
2023/12/28 10:52:32;;;;;;;13.43;7.70;;;;;;;17.30;39.81;100563.53;5019253;28;20545;-65
2023/12/28 10:55:15;;;;;;;17.17;7.87;;;;;;;17.43;39.58;100558.94;5032698;28;20226;-64
2023/12/28 10:57:55;;;;;;;12.67;7.73;;;;;;;17.42;39.87;100556.47;5027751;28;20241;-65
2023/12/28 11:00:26;;;;;;;15.00;7.40;;;;;;;17.28;40.30;100549.50;5033644;28;20216;-65
2023/12/28 11:02:57;;;;;;;17.00;8.63;;;;;;;17.07;40.63;100547.91;5018369;28;20221;-64
2023/12/28 11:05:25;;;;;;;13.57;6.90;;;;;;;16.97;40.38;100544.03;5014635;28;20185;-65
2023/12/28 11:07:53;;;;;;;55.33;11.97;;;;;;;16.94;40.64;100542.59;5015035;28;20665;-63
2023/12/28 11:10:24;;;;;;;8.37;7.53;;;;;;;16.92;40.76;100535.78;5021352;28;20758;-63
2023/12/28 11:12:53;;;;;;;12.93;7.83;;;;;;;16.78;41.18;100531.50;5032469;28;20325;-65
2023/12/28 11:15:19;;;;;;;17.10;7.80;;;;;;;16.47;42.49;100517.94;5031367;28;20292;-67
2023/12/28 11:17:48;;;;;;;14.13;7.43;;;;;;;16.34;42.13;100515.25;5033272;28;20255;-65
2023/12/28 11:20:15;;;;;;;62.07;9.83;;;;;;;16.44;42.03;100507.63;5030812;28;20284;-67